CORO2: Mud Creek nr Courtney, OK

Data processed at Fri May 24 2019 23:50


All information presented herein is the property of the government of the United States of America and may be revised or deleted at any time without prior notice.
Dissemination of this information without the expressed written consent of the Public Affairs Office, Tulsa District U.S. Army Corps of Engineers is strictly prohibited.
These data are gathered electronically and, as presented, have not undergone any form of quality control. These data are not guaranteed to be valid or correct.
Go to home page.
Go to station list.
Go to home page.

Downstream station:


Previous Day
Next Day
Current Day
    
SHEF ID:       CORO2     Mud Creek nr Courtney, OK
STATION TYPE:  

                STAGE  STAGE(2)  RIV-FLOW  BAT-LOAD
                   ft        ft       cfs      volt
              Ccp-Rev   Ccp-Rev   Ccp-Rev   Ccp-Rev
(US/Central)
05/24 00:00     19.77     19.73      1489     12.49
05/24 01:00     19.76     19.75      1486     12.57
05/24 02:00     19.75     19.72      1484     12.49
05/24 03:00     19.72     19.69      1477     12.49
05/24 04:00     19.69     19.68      1471     12.49
05/24 05:00     19.66     19.65      1464     12.49
05/24 06:00     19.60     19.60      1450     12.49
05/24 07:00     19.51     19.54      1430     12.49
05/24 08:00     19.41     19.43      1408     12.57
05/24 09:00     19.23     19.26      1368     12.25
05/24 10:00     19.03     19.08      1325     12.89
05/24 11:00     18.75     18.77      1266     13.44
05/24 12:00     18.40     18.49      1194     13.13
05/24 13:00     18.00     18.04      1114     13.05
05/24 14:00     17.53     17.58      1023     12.97
05/24 15:00     17.04     17.11       933     13.05
05/24 16:00     16.53     16.57       845     12.89
05/24 17:00     16.04     16.12       766     12.81
05/24 18:00     15.56     15.55       691     12.81
05/24 19:00     15.11     15.05       624     12.81
05/24 20:00     14.70     14.68       566     12.65
05/24 21:00     14.34     14.28       518     12.65
05/24 22:00     14.01     13.98       475     12.57
05/24 23:00      ----      ----      ----      ----